sensor_id;sensor_type;location;lat;lon;timestamp;pressure;altitude;pressure_sealevel;temperature;humidity
41624;BME280;27319;50.306;18.926;2022-09-09T00:05:29;97982.81;;;17.85;93.58
41624;BME280;27319;50.306;18.926;2022-09-09T00:08:48;97981.84;;;17.79;93.43
41624;BME280;27319;50.306;18.926;2022-09-09T00:11:56;97976.06;;;17.69;94.44
41624;BME280;27319;50.306;18.926;2022-09-09T00:15:13;97972.69;;;17.74;94.15
41624;BME280;27319;50.306;18.926;2022-09-09T00:18:29;97977.69;;;17.77;93.63
41624;BME280;27319;50.306;18.926;2022-09-09T00:21:41;97978.56;;;17.71;93.85
41624;BME280;27319;50.306;18.926;2022-09-09T00:27:51;97980.78;;;17.49;94.89
41624;BME280;27319;50.306;18.926;2022-09-09T00:30:52;97979.78;;;17.75;93.18
41624;BME280;27319;50.306;18.926;2022-09-09T00:33:55;97983.53;;;17.74;93.89
41624;BME280;27319;50.306;18.926;2022-09-09T00:36:59;97979.97;;;17.80;93.42
41624;BME280;27319;50.306;18.926;2022-09-09T00:40:02;97977.47;;;17.78;94.23
41624;BME280;27319;50.306;18.926;2022-09-09T00:50:16;97984.59;;;17.73;92.99
41624;BME280;27319;50.306;18.926;2022-09-09T01:03:37;97999.41;;;17.77;93.63
41624;BME280;27319;50.306;18.926;2022-09-09T01:06:39;97996.78;;;17.64;94.96
41624;BME280;27319;50.306;18.926;2022-09-09T01:09:45;97996.28;;;17.73;93.28
41624;BME280;27319;50.306;18.926;2022-09-09T01:12:54;98004.41;;;17.80;93.38
41624;BME280;27319;50.306;18.926;2022-09-09T01:15:59;98004.91;;;17.95;92.73
41624;BME280;27319;50.306;18.926;2022-09-09T01:19:01;98005.00;;;17.82;93.90
41624;BME280;27319;50.306;18.926;2022-09-09T01:28:47;98006.31;;;17.73;95.03
41624;BME280;27319;50.306;18.926;2022-09-09T01:31:58;98014.44;;;17.73;94.42
41624;BME280;27319;50.306;18.926;2022-09-09T01:34:59;98016.06;;;17.80;94.49
41624;BME280;27319;50.306;18.926;2022-09-09T01:38:00;98020.72;;;17.73;94.48
41624;BME280;27319;50.306;18.926;2022-09-09T01:41:01;98023.63;;;17.78;94.71
41624;BME280;27319;50.306;18.926;2022-09-09T01:44:03;98024.41;;;17.85;94.15
41624;BME280;27319;50.306;18.926;2022-09-09T01:47:04;98021.28;;;17.82;94.21
41624;BME280;27319;50.306;18.926;2022-09-09T01:50:08;98026.13;;;17.80;93.81
41624;BME280;27319;50.306;18.926;2022-09-09T01:53:12;98034.88;;;17.82;93.90
41624;BME280;27319;50.306;18.926;2022-09-09T01:59:48;98033.81;;;17.83;93.12
41624;BME280;27319;50.306;18.926;2022-09-09T02:03:27;98032.50;;;17.92;92.83
41624;BME280;27319;50.306;18.926;2022-09-09T02:06:36;98030.31;;;17.76;94.30
41624;BME280;27319;50.306;18.926;2022-09-09T02:09:39;98037.50;;;17.64;94.51
41624;BME280;27319;50.306;18.926;2022-09-09T02:12:49;98036.81;;;17.68;93.40
41624;BME280;27319;50.306;18.926;2022-09-09T02:16:00;98033.91;;;17.70;93.23
41624;BME280;27319;50.306;18.926;2022-09-09T02:22:09;98041.28;;;17.56;93.49
41624;BME280;27319;50.306;18.926;2022-09-09T02:25:13;98049.25;;;17.45;94.02
41624;BME280;27319;50.306;18.926;2022-09-09T02:28:16;98048.47;;;17.38;94.01
41624;BME280;27319;50.306;18.926;2022-09-09T02:31:20;98052.06;;;17.19;94.93
41624;BME280;27319;50.306;18.926;2022-09-09T02:34:23;98055.63;;;17.13;94.83
41624;BME280;27319;50.306;18.926;2022-09-09T02:37:31;98056.81;;;17.30;93.71
41624;BME280;27319;50.306;18.926;2022-09-09T02:40:35;98053.97;;;17.12;94.21
41624;BME280;27319;50.306;18.926;2022-09-09T02:43:36;98053.97;;;17.12;93.93
41624;BME280;27319;50.306;18.926;2022-09-09T02:50:11;98056.28;;;17.08;93.80
41624;BME280;27319;50.306;18.926;2022-09-09T02:53:17;98062.50;;;17.09;93.79
41624;BME280;27319;50.306;18.926;2022-09-09T02:56:25;98061.91;;;17.07;93.01
41624;BME280;27319;50.306;18.926;2022-09-09T02:59:30;98057.38;;;16.81;93.18
41624;BME280;27319;50.306;18.926;2022-09-09T03:02:31;98064.47;;;16.76;93.57
41624;BME280;27319;50.306;18.926;2022-09-09T03:05:32;98061.16;;;16.61;94.52
41624;BME280;27319;50.306;18.926;2022-09-09T03:08:33;98063.25;;;16.59;94.34
41624;BME280;27319;50.306;18.926;2022-09-09T03:11:34;98064.06;;;16.53;94.29
41624;BME280;27319;50.306;18.926;2022-09-09T03:14:35;98077.81;;;16.32;94.20
41624;BME280;27319;50.306;18.926;2022-09-09T03:17:36;98070.72;;;16.24;94.40
41624;BME280;27319;50.306;18.926;2022-09-09T03:20:37;98073.63;;;16.10;94.60
41624;BME280;27319;50.306;18.926;2022-09-09T03:23:38;98083.84;;;16.01;94.78
41624;BME280;27319;50.306;18.926;2022-09-09T03:26:40;98076.34;;;15.97;95.00
41624;BME280;27319;50.306;18.926;2022-09-09T03:29:41;98074.03;;;15.94;94.88
41624;BME280;27319;50.306;18.926;2022-09-09T03:32:42;98079.66;;;15.86;94.52
41624;BME280;27319;50.306;18.926;2022-09-09T03:35:46;98082.75;;;15.76;95.09
41624;BME280;27319;50.306;18.926;2022-09-09T03:38:51;98091.22;;;15.67;95.38
41624;BME280;27319;50.306;18.926;2022-09-09T03:41:52;98086.91;;;15.79;94.58
41624;BME280;27319;50.306;18.926;2022-09-09T03:44:52;98085.63;;;15.62;94.40
41624;BME280;27319;50.306;18.926;2022-09-09T03:47:53;98085.16;;;15.52;95.07
41624;BME280;27319;50.306;18.926;2022-09-09T03:50:54;98094.06;;;15.39;95.48
41624;BME280;27319;50.306;18.926;2022-09-09T03:53:56;98103.41;;;15.37;95.85
41624;BME280;27319;50.306;18.926;2022-09-09T03:56:58;98098.22;;;15.42;95.66
41624;BME280;27319;50.306;18.926;2022-09-09T03:59:59;98099.69;;;15.44;95.57
41624;BME280;27319;50.306;18.926;2022-09-09T04:03:01;98102.81;;;15.41;95.76
41624;BME280;27319;50.306;18.926;2022-09-09T04:06:04;98099.44;;;15.33;95.57
41624;BME280;27319;50.306;18.926;2022-09-09T04:09:05;98104.59;;;15.28;96.28
41624;BME280;27319;50.306;18.926;2022-09-09T04:12:06;98099.19;;;15.28;95.87
41624;BME280;27319;50.306;18.926;2022-09-09T04:15:07;98096.75;;;15.33;96.11
41624;BME280;27319;50.306;18.926;2022-09-09T04:18:09;98094.41;;;15.30;96.02
41624;BME280;27319;50.306;18.926;2022-09-09T04:21:10;98094.66;;;15.35;96.11
41624;BME280;27319;50.306;18.926;2022-09-09T04:24:12;98101.78;;;15.42;95.71
41624;BME280;27319;50.306;18.926;2022-09-09T04:27:13;98101.34;;;15.39;95.50
41624;BME280;27319;50.306;18.926;2022-09-09T04:30:14;98100.84;;;15.29;95.57
41624;BME280;27319;50.306;18.926;2022-09-09T04:33:15;98105.41;;;15.22;95.72
41624;BME280;27319;50.306;18.926;2022-09-09T04:36:18;98105.16;;;15.17;95.44
41624;BME280;27319;50.306;18.926;2022-09-09T04:39:19;98101.66;;;15.23;95.77
41624;BME280;27319;50.306;18.926;2022-09-09T04:42:20;98096.25;;;15.29;95.65
41624;BME280;27319;50.306;18.926;2022-09-09T04:45:21;98102.94;;;15.27;96.25
41624;BME280;27319;50.306;18.926;2022-09-09T04:48:22;98100.41;;;15.25;95.66
41624;BME280;27319;50.306;18.926;2022-09-09T04:51:23;98104.97;;;15.25;95.85
41624;BME280;27319;50.306;18.926;2022-09-09T04:54:24;98112.22;;;15.18;96.32
41624;BME280;27319;50.306;18.926;2022-09-09T04:57:25;98116.66;;;15.32;96.26
41624;BME280;27319;50.306;18.926;2022-09-09T05:00:26;98117.25;;;15.27;96.57
41624;BME280;27319;50.306;18.926;2022-09-09T05:03:28;98118.59;;;15.38;96.36
41624;BME280;27319;50.306;18.926;2022-09-09T05:06:30;98128.50;;;15.65;96.15
41624;BME280;27319;50.306;18.926;2022-09-09T05:09:32;98128.06;;;15.61;96.44
41624;BME280;27319;50.306;18.926;2022-09-09T05:12:33;98114.81;;;15.73;96.47
41624;BME280;27319;50.306;18.926;2022-09-09T05:15:33;98124.38;;;15.82;95.91
41624;BME280;27319;50.306;18.926;2022-09-09T05:18:34;98126.94;;;15.96;95.05
41624;BME280;27319;50.306;18.926;2022-09-09T05:21:35;98134.88;;;16.11;94.65
41624;BME280;27319;50.306;18.926;2022-09-09T05:24:36;98142.81;;;16.19;93.83
41624;BME280;27319;50.306;18.926;2022-09-09T05:27:37;98142.59;;;16.20;94.68
41624;BME280;27319;50.306;18.926;2022-09-09T05:30:38;98148.03;;;16.27;94.55
41624;BME280;27319;50.306;18.926;2022-09-09T05:33:40;98141.16;;;16.31;94.52
41624;BME280;27319;50.306;18.926;2022-09-09T05:36:43;98139.06;;;16.33;94.44
41624;BME280;27319;50.306;18.926;2022-09-09T05:39:44;98141.59;;;16.41;93.37
41624;BME280;27319;50.306;18.926;2022-09-09T05:42:45;98147.03;;;16.41;93.69
41624;BME280;27319;50.306;18.926;2022-09-09T05:45:59;98144.97;;;16.56;93.21
41624;BME280;27319;50.306;18.926;2022-09-09T05:49:02;98145.19;;;16.61;92.92
41624;BME280;27319;50.306;18.926;2022-09-09T05:52:04;98146.41;;;16.52;93.37
41624;BME280;27319;50.306;18.926;2022-09-09T05:55:06;98144.13;;;16.62;93.16
41624;BME280;27319;50.306;18.926;2022-09-09T05:58:07;98153.94;;;16.69;92.30
41624;BME280;27319;50.306;18.926;2022-09-09T06:01:16;98152.03;;;16.70;92.83
41624;BME280;27319;50.306;18.926;2022-09-09T06:04:16;98150.81;;;16.79;93.02
41624;BME280;27319;50.306;18.926;2022-09-09T06:07:18;98147.25;;;16.72;93.32
41624;BME280;27319;50.306;18.926;2022-09-09T06:10:19;98155.78;;;16.69;93.76
41624;BME280;27319;50.306;18.926;2022-09-09T06:13:20;98156.84;;;16.74;93.54
41624;BME280;27319;50.306;18.926;2022-09-09T06:16:22;98152.91;;;16.77;93.90
41624;BME280;27319;50.306;18.926;2022-09-09T06:19:24;98152.06;;;16.83;91.99
41624;BME280;27319;50.306;18.926;2022-09-09T06:22:27;98150.56;;;16.87;91.92
41624;BME280;27319;50.306;18.926;2022-09-09T06:25:28;98150.16;;;16.83;92.53
41624;BME280;27319;50.306;18.926;2022-09-09T06:28:28;98160.19;;;16.83;93.32
41624;BME280;27319;50.306;18.926;2022-09-09T06:31:31;98158.50;;;16.95;92.48
41624;BME280;27319;50.306;18.926;2022-09-09T06:34:32;98157.88;;;16.93;92.56
41624;BME280;27319;50.306;18.926;2022-09-09T06:37:33;98162.28;;;16.94;91.47
41624;BME280;27319;50.306;18.926;2022-09-09T06:40:34;98168.72;;;16.99;92.50
41624;BME280;27319;50.306;18.926;2022-09-09T06:43:36;98164.16;;;17.00;93.62
41624;BME280;27319;50.306;18.926;2022-09-09T06:46:37;98157.88;;;16.93;92.08
41624;BME280;27319;50.306;18.926;2022-09-09T06:49:38;98155.97;;;17.06;91.48
41624;BME280;27319;50.306;18.926;2022-09-09T06:52:39;98164.13;;;17.13;90.44
41624;BME280;27319;50.306;18.926;2022-09-09T06:55:40;98159.94;;;17.10;90.48
41624;BME280;27319;50.306;18.926;2022-09-09T06:58:44;98148.69;;;17.07;91.42
41624;BME280;27319;50.306;18.926;2022-09-09T07:01:46;98159.94;;;17.17;89.95
41624;BME280;27319;50.306;18.926;2022-09-09T07:04:52;98158.44;;;17.21;90.34
41624;BME280;27319;50.306;18.926;2022-09-09T07:07:53;98152.63;;;17.24;90.34
41624;BME280;27319;50.306;18.926;2022-09-09T07:10:54;98143.22;;;17.26;89.26
41624;BME280;27319;50.306;18.926;2022-09-09T07:13:56;98138.81;;;17.32;89.85
41624;BME280;27319;50.306;18.926;2022-09-09T07:16:57;98144.28;;;17.38;89.29
41624;BME280;27319;50.306;18.926;2022-09-09T07:19:58;98145.72;;;17.41;87.87
41624;BME280;27319;50.306;18.926;2022-09-09T07:22:59;98154.47;;;17.43;89.18
41624;BME280;27319;50.306;18.926;2022-09-09T07:26:00;98143.63;;;17.43;86.95
41624;BME280;27319;50.306;18.926;2022-09-09T07:29:01;98135.91;;;17.40;87.20
41624;BME280;27319;50.306;18.926;2022-09-09T07:32:02;98144.44;;;17.50;85.99
41624;BME280;27319;50.306;18.926;2022-09-09T07:35:05;98140.25;;;17.54;86.47
41624;BME280;27319;50.306;18.926;2022-09-09T07:38:06;98138.72;;;17.71;83.34
41624;BME280;27319;50.306;18.926;2022-09-09T07:41:08;98141.03;;;17.61;85.28
41624;BME280;27319;50.306;18.926;2022-09-09T07:44:15;98144.56;;;17.68;86.71
41624;BME280;27319;50.306;18.926;2022-09-09T07:47:16;98155.66;;;17.60;87.23
41624;BME280;27319;50.306;18.926;2022-09-09T07:50:17;98150.19;;;17.73;87.12
41624;BME280;27319;50.306;18.926;2022-09-09T07:53:18;98157.91;;;17.76;85.97
41624;BME280;27319;50.306;18.926;2022-09-09T07:56:20;98167.69;;;17.83;86.93
41624;BME280;27319;50.306;18.926;2022-09-09T07:59:24;98169.69;;;18.01;89.33
41624;BME280;27319;50.306;18.926;2022-09-09T08:02:25;98173.66;;;18.05;86.74
41624;BME280;27319;50.306;18.926;2022-09-09T08:05:28;98169.97;;;18.24;85.17
41624;BME280;27319;50.306;18.926;2022-09-09T08:08:29;98175.00;;;18.27;86.46
41624;BME280;27319;50.306;18.926;2022-09-09T08:11:30;98181.75;;;18.49;89.83
41624;BME280;27319;50.306;18.926;2022-09-09T08:14:31;98174.91;;;18.46;87.52
41624;BME280;27319;50.306;18.926;2022-09-09T08:17:32;98176.50;;;18.54;84.72
41624;BME280;27319;50.306;18.926;2022-09-09T08:20:36;98185.63;;;18.66;87.93
41624;BME280;27319;50.306;18.926;2022-09-09T08:23:41;98180.63;;;18.63;90.82
41624;BME280;27319;50.306;18.926;2022-09-09T08:26:45;98169.72;;;18.69;86.27
41624;BME280;27319;50.306;18.926;2022-09-09T08:29:46;98175.72;;;18.78;85.05
41624;BME280;27319;50.306;18.926;2022-09-09T08:32:48;98174.97;;;18.89;83.06
41624;BME280;27319;50.306;18.926;2022-09-09T08:35:51;98175.06;;;19.07;84.13
41624;BME280;27319;50.306;18.926;2022-09-09T08:38:55;98173.91;;;19.21;82.59
41624;BME280;27319;50.306;18.926;2022-09-09T08:42:00;98176.41;;;19.22;81.96
41624;BME280;27319;50.306;18.926;2022-09-09T08:51:44;98181.31;;;19.32;80.68
41624;BME280;27319;50.306;18.926;2022-09-09T08:54:44;98179.97;;;19.41;78.70
41624;BME280;27319;50.306;18.926;2022-09-09T08:57:49;98186.72;;;19.56;81.42
41624;BME280;27319;50.306;18.926;2022-09-09T09:01:22;98180.91;;;19.71;80.54
41624;BME280;27319;50.306;18.926;2022-09-09T09:09:01;98184.16;;;19.61;78.65
41624;BME280;27319;50.306;18.926;2022-09-09T09:11:38;98181.19;;;19.81;77.13
41624;BME280;27319;50.306;18.926;2022-09-09T09:14:39;98178.09;;;19.77;77.56
41624;BME280;27319;50.306;18.926;2022-09-09T09:17:41;98182.50;;;19.78;80.78
41624;BME280;27319;50.306;18.926;2022-09-09T09:20:54;98176.94;;;19.85;79.67
41624;BME280;27319;50.306;18.926;2022-09-09T09:24:00;98179.63;;;19.73;76.56
41624;BME280;27319;50.306;18.926;2022-09-09T09:27:12;98179.09;;;19.83;77.28
41624;BME280;27319;50.306;18.926;2022-09-09T09:36:33;98181.56;;;20.20;84.82
41624;BME280;27319;50.306;18.926;2022-09-09T09:39:34;98172.31;;;20.21;81.01
41624;BME280;27319;50.306;18.926;2022-09-09T09:42:38;98170.84;;;20.37;80.99
41624;BME280;27319;50.306;18.926;2022-09-09T09:45:47;98168.72;;;20.39;77.61
41624;BME280;27319;50.306;18.926;2022-09-09T09:48:59;98176.22;;;20.43;70.89
41624;BME280;27319;50.306;18.926;2022-09-09T09:52:02;98172.78;;;20.48;70.56
41624;BME280;27319;50.306;18.926;2022-09-09T09:55:04;98183.97;;;20.58;74.16
41624;BME280;27319;50.306;18.926;2022-09-09T09:58:15;98184.75;;;20.47;72.93
41624;BME280;27319;50.306;18.926;2022-09-09T10:01:32;98182.38;;;20.50;72.71
41624;BME280;27319;50.306;18.926;2022-09-09T10:04:34;98185.03;;;20.57;69.67
41624;BME280;27319;50.306;18.926;2022-09-09T10:07:35;98180.88;;;20.66;70.71
41624;BME280;27319;50.306;18.926;2022-09-09T10:20:32;98191.56;;;20.97;69.70
41624;BME280;27319;50.306;18.926;2022-09-09T10:26:58;98206.78;;;21.16;67.10
41624;BME280;27319;50.306;18.926;2022-09-09T10:30:28;98201.53;;;21.14;66.64
41624;BME280;27319;50.306;18.926;2022-09-09T10:33:37;98199.41;;;21.05;67.46
41624;BME280;27319;50.306;18.926;2022-09-09T10:36:49;98209.91;;;20.90;64.04
41624;BME280;27319;50.306;18.926;2022-09-09T10:39:59;98217.22;;;21.30;61.33
41624;BME280;27319;50.306;18.926;2022-09-09T10:53:11;98209.75;;;22.46;68.13
41624;BME280;27319;50.306;18.926;2022-09-09T10:56:18;98211.91;;;22.21;62.35
41624;BME280;27319;50.306;18.926;2022-09-09T10:59:24;98207.13;;;22.00;62.58
41624;BME280;27319;50.306;18.926;2022-09-09T11:02:28;98205.09;;;21.95;60.91
41624;BME280;27319;50.306;18.926;2022-09-09T11:05:44;98214.75;;;22.37;58.03
41624;BME280;27319;50.306;18.926;2022-09-09T11:08:47;98214.81;;;22.54;59.79
41624;BME280;27319;50.306;18.926;2022-09-09T11:11:55;98218.88;;;22.40;61.73
41624;BME280;27319;50.306;18.926;2022-09-09T11:15:06;98211.00;;;22.04;60.68
41624;BME280;27319;50.306;18.926;2022-09-09T11:18:11;98222.06;;;22.48;64.39
41624;BME280;27319;50.306;18.926;2022-09-09T11:21:28;98216.31;;;23.06;60.95
41624;BME280;27319;50.306;18.926;2022-09-09T11:24:40;98214.28;;;23.29;55.89
41624;BME280;27319;50.306;18.926;2022-09-09T11:31:47;98221.59;;;23.24;54.05
41624;BME280;27319;50.306;18.926;2022-09-09T11:41:12;98218.06;;;23.12;53.70
41624;BME280;27319;50.306;18.926;2022-09-09T11:44:21;98217.03;;;23.29;53.66
41624;BME280;27319;50.306;18.926;2022-09-09T11:47:29;98207.81;;;23.19;55.29
41624;BME280;27319;50.306;18.926;2022-09-09T11:50:36;98203.75;;;23.92;56.95
41624;BME280;27319;50.306;18.926;2022-09-09T11:53:54;98206.47;;;24.57;55.32
41624;BME280;27319;50.306;18.926;2022-09-09T11:56:55;98205.91;;;24.76;52.41
41624;BME280;27319;50.306;18.926;2022-09-09T11:59:57;98204.44;;;24.69;52.36
41624;BME280;27319;50.306;18.926;2022-09-09T12:02:59;98211.34;;;24.50;53.71
41624;BME280;27319;50.306;18.926;2022-09-09T12:06:09;98211.91;;;24.73;50.46
41624;BME280;27319;50.306;18.926;2022-09-09T12:12:33;98206.69;;;24.07;51.09
41624;BME280;27319;50.306;18.926;2022-09-09T12:15:34;98215.38;;;23.83;54.15
41624;BME280;27319;50.306;18.926;2022-09-09T12:18:37;98218.91;;;23.62;56.24
41624;BME280;27319;50.306;18.926;2022-09-09T12:22:03;98213.75;;;23.65;54.08
41624;BME280;27319;50.306;18.926;2022-09-09T12:25:39;98207.25;;;24.09;52.25
41624;BME280;27319;50.306;18.926;2022-09-09T12:29:05;98215.56;;;23.93;54.15
41624;BME280;27319;50.306;18.926;2022-09-09T12:32:19;98221.22;;;23.70;53.31
41624;BME280;27319;50.306;18.926;2022-09-09T12:35:26;98211.41;;;23.90;52.42
41624;BME280;27319;50.306;18.926;2022-09-09T12:38:37;98207.66;;;24.39;49.44
41624;BME280;27319;50.306;18.926;2022-09-09T12:41:39;98217.59;;;24.45;53.30
41624;BME280;27319;50.306;18.926;2022-09-09T12:44:50;98212.22;;;24.77;53.94
41624;BME280;27319;50.306;18.926;2022-09-09T12:48:09;98226.00;;;24.82;54.26
41624;BME280;27319;50.306;18.926;2022-09-09T12:51:34;98214.28;;;24.91;48.58
41624;BME280;27319;50.306;18.926;2022-09-09T12:54:36;98212.28;;;24.82;48.14
41624;BME280;27319;50.306;18.926;2022-09-09T12:57:39;98209.84;;;24.85;46.20
41624;BME280;27319;50.306;18.926;2022-09-09T13:00:49;98210.97;;;24.89;49.20
41624;BME280;27319;50.306;18.926;2022-09-09T13:03:52;98204.53;;;24.79;53.71
41624;BME280;27319;50.306;18.926;2022-09-09T13:06:54;98205.91;;;24.76;50.07
41624;BME280;27319;50.306;18.926;2022-09-09T13:10:05;98208.81;;;24.91;50.25
41624;BME280;27319;50.306;18.926;2022-09-09T13:13:19;98205.88;;;25.03;50.15
41624;BME280;27319;50.306;18.926;2022-09-09T13:16:32;98205.06;;;25.02;48.90
41624;BME280;27319;50.306;18.926;2022-09-09T13:19:36;98189.66;;;25.01;47.78
41624;BME280;27319;50.306;18.926;2022-09-09T13:22:38;98187.22;;;25.05;47.92
41624;BME280;27319;50.306;18.926;2022-09-09T13:25:41;98176.91;;;25.22;43.53
41624;BME280;27319;50.306;18.926;2022-09-09T13:28:53;98177.09;;;24.79;48.24
41624;BME280;27319;50.306;18.926;2022-09-09T13:32:18;98176.06;;;24.58;52.76
41624;BME280;27319;50.306;18.926;2022-09-09T13:35:23;98177.47;;;24.39;55.44
41624;BME280;27319;50.306;18.926;2022-09-09T13:38:25;98167.63;;;24.43;50.82
41624;BME280;27319;50.306;18.926;2022-09-09T13:41:43;98162.13;;;24.43;48.27
41624;BME280;27319;50.306;18.926;2022-09-09T13:44:49;98154.25;;;24.25;51.64
41624;BME280;27319;50.306;18.926;2022-09-09T13:47:50;98168.28;;;24.50;53.34
41624;BME280;27319;50.306;18.926;2022-09-09T13:51:03;98169.84;;;23.98;51.42
41624;BME280;27319;50.306;18.926;2022-09-09T13:54:10;98156.72;;;23.84;51.96
41624;BME280;27319;50.306;18.926;2022-09-09T13:57:19;98142.25;;;24.31;52.34
41624;BME280;27319;50.306;18.926;2022-09-09T14:00:21;98149.44;;;23.89;51.64
41624;BME280;27319;50.306;18.926;2022-09-09T14:03:22;98147.13;;;24.03;54.06
41624;BME280;27319;50.306;18.926;2022-09-09T14:06:23;98149.09;;;23.86;55.48
41624;BME280;27319;50.306;18.926;2022-09-09T14:09:24;98143.19;;;23.56;57.19
41624;BME280;27319;50.306;18.926;2022-09-09T14:12:25;98140.25;;;23.84;53.33
41624;BME280;27319;50.306;18.926;2022-09-09T14:15:26;98139.47;;;24.05;52.60
41624;BME280;27319;50.306;18.926;2022-09-09T14:18:27;98137.75;;;23.61;57.46
41624;BME280;27319;50.306;18.926;2022-09-09T14:21:28;98130.91;;;23.42;57.96
41624;BME280;27319;50.306;18.926;2022-09-09T14:24:29;98135.75;;;23.35;53.65
41624;BME280;27319;50.306;18.926;2022-09-09T14:27:30;98132.41;;;23.49;58.07
41624;BME280;27319;50.306;18.926;2022-09-09T14:30:30;98136.47;;;23.47;56.38
41624;BME280;27319;50.306;18.926;2022-09-09T14:33:31;98138.53;;;23.56;53.52
41624;BME280;27319;50.306;18.926;2022-09-09T14:36:33;98140.53;;;23.82;52.10
41624;BME280;27319;50.306;18.926;2022-09-09T14:39:34;98138.50;;;23.73;55.83
41624;BME280;27319;50.306;18.926;2022-09-09T14:42:35;98138.84;;;23.60;58.18
41624;BME280;27319;50.306;18.926;2022-09-09T14:45:36;98132.66;;;23.48;54.46
41624;BME280;27319;50.306;18.926;2022-09-09T14:48:37;98129.91;;;23.15;58.07
41624;BME280;27319;50.306;18.926;2022-09-09T14:51:41;98127.13;;;23.10;56.83
41624;BME280;27319;50.306;18.926;2022-09-09T14:54:41;98130.44;;;23.12;55.97
41624;BME280;27319;50.306;18.926;2022-09-09T14:57:42;98126.81;;;23.06;54.00
41624;BME280;27319;50.306;18.926;2022-09-09T15:00:43;98131.44;;;23.06;51.32
41624;BME280;27319;50.306;18.926;2022-09-09T15:03:58;98122.97;;;23.24;49.48
41624;BME280;27319;50.306;18.926;2022-09-09T15:06:59;98129.28;;;23.08;54.88
41624;BME280;27319;50.306;18.926;2022-09-09T15:10:00;98126.78;;;22.90;59.03
41624;BME280;27319;50.306;18.926;2022-09-09T15:13:01;98123.31;;;22.78;59.03
41624;BME280;27319;50.306;18.926;2022-09-09T15:19:06;98129.50;;;22.57;55.57
41624;BME280;27319;50.306;18.926;2022-09-09T15:22:08;98136.78;;;22.51;53.67
41624;BME280;27319;50.306;18.926;2022-09-09T15:25:09;98134.59;;;22.37;55.56
41624;BME280;27319;50.306;18.926;2022-09-09T15:28:09;98134.59;;;22.09;59.48
41624;BME280;27319;50.306;18.926;2022-09-09T15:31:15;98136.53;;;21.97;60.16
41624;BME280;27319;50.306;18.926;2022-09-09T15:34:18;98130.72;;;21.82;61.63
41624;BME280;27319;50.306;18.926;2022-09-09T15:37:18;98130.06;;;21.52;61.98
41624;BME280;27319;50.306;18.926;2022-09-09T15:40:19;98131.75;;;21.41;63.08
41624;BME280;27319;50.306;18.926;2022-09-09T15:43:20;98127.13;;;21.19;63.79
41624;BME280;27319;50.306;18.926;2022-09-09T15:46:35;98131.06;;;21.11;65.63
41624;BME280;27319;50.306;18.926;2022-09-09T15:49:38;98128.19;;;20.95;67.25
41624;BME280;27319;50.306;18.926;2022-09-09T15:52:39;98132.63;;;20.78;68.20
41624;BME280;27319;50.306;18.926;2022-09-09T15:55:40;98127.41;;;20.65;68.54
41624;BME280;27319;50.306;18.926;2022-09-09T15:58:42;98132.97;;;20.58;68.78
41624;BME280;27319;50.306;18.926;2022-09-09T16:01:44;98128.91;;;20.49;69.41
41624;BME280;27319;50.306;18.926;2022-09-09T16:04:45;98127.06;;;20.32;69.40
41624;BME280;27319;50.306;18.926;2022-09-09T16:07:46;98135.13;;;20.27;68.51
41624;BME280;27319;50.306;18.926;2022-09-09T16:10:48;98119.69;;;20.21;70.69
41624;BME280;27319;50.306;18.926;2022-09-09T16:13:52;98114.13;;;20.16;72.51
41624;BME280;27319;50.306;18.926;2022-09-09T16:16:53;98116.00;;;20.15;72.70
41624;BME280;27319;50.306;18.926;2022-09-09T16:19:54;98110.94;;;20.01;74.87
41624;BME280;27319;50.306;18.926;2022-09-09T16:22:55;98108.56;;;19.93;75.36
41624;BME280;27319;50.306;18.926;2022-09-09T16:25:58;98112.69;;;19.95;75.43
41624;BME280;27319;50.306;18.926;2022-09-09T16:28:59;98096.69;;;19.69;75.66
41624;BME280;27319;50.306;18.926;2022-09-09T16:32:01;98108.13;;;19.60;76.04
41624;BME280;27319;50.306;18.926;2022-09-09T16:35:02;98106.19;;;19.49;76.14
41624;BME280;27319;50.306;18.926;2022-09-09T16:38:03;98100.34;;;19.45;76.41
41624;BME280;27319;50.306;18.926;2022-09-09T16:41:05;98099.81;;;19.55;76.71
41624;BME280;27319;50.306;18.926;2022-09-09T16:44:09;98094.38;;;19.55;76.82
41624;BME280;27319;50.306;18.926;2022-09-09T16:47:10;98098.81;;;19.49;77.00
41624;BME280;27319;50.306;18.926;2022-09-09T16:50:11;98099.34;;;19.40;77.33
41624;BME280;27319;50.306;18.926;2022-09-09T16:53:12;98102.19;;;19.33;78.42
41624;BME280;27319;50.306;18.926;2022-09-09T16:56:17;98103.09;;;19.27;78.76
41624;BME280;27319;50.306;18.926;2022-09-09T16:59:20;98108.38;;;19.16;78.39
41624;BME280;27319;50.306;18.926;2022-09-09T17:02:21;98110.47;;;18.78;79.75
41624;BME280;27319;50.306;18.926;2022-09-09T17:05:22;98101.78;;;18.87;79.47
41624;BME280;27319;50.306;18.926;2022-09-09T17:08:24;98103.06;;;18.60;80.15
41624;BME280;27319;50.306;18.926;2022-09-09T17:11:25;98111.34;;;18.47;79.85
41624;BME280;27319;50.306;18.926;2022-09-09T17:14:26;98114.56;;;18.38;78.63
41624;BME280;27319;50.306;18.926;2022-09-09T17:17:27;98115.75;;;18.42;79.66
41624;BME280;27319;50.306;18.926;2022-09-09T17:20:28;98113.94;;;18.29;79.98
41624;BME280;27319;50.306;18.926;2022-09-09T17:23:29;98114.41;;;18.20;80.10
41624;BME280;27319;50.306;18.926;2022-09-09T17:26:31;98126.00;;;18.09;80.73
41624;BME280;27319;50.306;18.926;2022-09-09T17:29:33;98126.25;;;18.01;81.12
41624;BME280;27319;50.306;18.926;2022-09-09T17:32:36;98129.16;;;17.99;80.44
41624;BME280;27319;50.306;18.926;2022-09-09T17:35:37;98126.72;;;17.91;80.99
41624;BME280;27319;50.306;18.926;2022-09-09T17:38:38;98138.53;;;17.66;81.42
41624;BME280;27319;50.306;18.926;2022-09-09T17:41:40;98128.13;;;17.63;81.92